createdAt,value
2022-09-16T00:00:38.571Z,41.26
2022-09-16T00:01:38.612Z,49.16
2022-09-16T00:02:40.249Z,41.67
2022-09-16T00:03:39.518Z,37.04
2022-09-16T00:04:38.506Z,47.42
2022-09-16T00:05:38.501Z,55.86
2022-09-16T00:06:38.517Z,47.43
2022-09-16T00:07:38.486Z,45.33
2022-09-16T00:08:38.477Z,34.46
2022-09-16T00:09:38.469Z,42.65
2022-09-16T00:10:38.464Z,33.92
2022-09-16T00:11:38.479Z,48.47
2022-09-16T00:12:38.448Z,45.56
2022-09-16T00:13:38.441Z,54.22
2022-09-16T00:14:38.435Z,45.45
2022-09-16T00:15:38.414Z,55.97
2022-09-16T00:16:39.497Z,59.19
2022-09-16T00:17:38.410Z,42.48
2022-09-16T00:18:38.405Z,49.04
2022-09-16T00:19:38.394Z,57.77
2022-09-16T00:20:38.389Z,51.71
2022-09-16T00:21:38.408Z,51.12
2022-09-16T00:22:38.371Z,51.84
2022-09-16T00:23:38.368Z,50.76
2022-09-16T00:24:38.356Z,48.38
2022-09-16T00:25:38.343Z,45.04
2022-09-16T00:26:38.369Z,48.37
2022-09-16T00:27:38.329Z,47.22
2022-09-16T00:28:38.317Z,41.07
2022-09-16T00:29:38.311Z,55.50
2022-09-16T00:30:38.304Z,55.78
2022-09-16T00:31:38.354Z,50.36
2022-09-16T00:32:38.288Z,49.12
2022-09-16T00:33:38.308Z,47.00
2022-09-16T00:34:38.278Z,50.50
2022-09-16T00:35:38.263Z,54.41
2022-09-16T00:36:38.260Z,45.55
2022-09-16T00:37:38.246Z,51.17
2022-09-16T00:38:38.264Z,57.19
2022-09-16T00:39:38.231Z,55.40
2022-09-16T00:40:38.222Z,50.49
2022-09-16T00:41:38.213Z,60.98
2022-09-16T00:42:38.207Z,59.89
2022-09-16T00:43:38.225Z,40.29
2022-09-16T00:44:38.188Z,37.45
2022-09-16T00:45:38.180Z,45.17
2022-09-16T00:46:38.240Z,41.35
2022-09-16T00:47:38.168Z,49.67
2022-09-16T00:48:38.195Z,55.56
2022-09-16T00:49:38.153Z,45.65
2022-09-16T00:50:38.148Z,49.16
2022-09-16T00:51:38.140Z,58.20
2022-09-16T00:52:38.131Z,57.59
2022-09-16T00:53:42.714Z,37.73
2022-09-16T00:54:40.113Z,36.20
2022-09-16T00:55:38.107Z,47.94
2022-09-16T00:56:38.100Z,53.00
2022-09-16T00:57:38.089Z,49.83
2022-09-16T00:58:38.108Z,50.21
2022-09-16T00:59:38.072Z,55.00
2022-09-16T01:00:38.084Z,51.38
2022-09-16T01:01:38.114Z,43.01
2022-09-16T01:02:38.049Z,56.25
2022-09-16T01:03:38.064Z,56.62
2022-09-16T01:04:38.039Z,40.66
2022-09-16T01:05:38.026Z,43.25
2022-09-16T01:06:38.013Z,52.15
2022-09-16T01:07:38.008Z,53.05
2022-09-16T01:08:38.027Z,52.84
2022-09-16T01:09:37.993Z,41.66
2022-09-16T01:10:37.992Z,49.72
2022-09-16T01:11:37.980Z,46.39
2022-09-16T01:12:37.968Z,47.15
2022-09-16T01:13:37.991Z,55.65
2022-09-16T01:14:37.957Z,41.86
2022-09-16T01:15:37.953Z,53.85
2022-09-16T01:16:37.966Z,46.47
2022-09-16T01:17:38.931Z,54.02
2022-09-16T01:18:37.954Z,43.43
2022-09-16T01:19:38.914Z,52.10
2022-09-16T01:20:37.907Z,54.41
2022-09-16T01:21:37.899Z,47.19
2022-09-16T01:22:37.892Z,48.61
2022-09-16T01:23:37.919Z,50.69
2022-09-16T01:24:37.874Z,54.53
2022-09-16T01:25:37.867Z,50.26
2022-09-16T01:26:37.890Z,52.95
2022-09-16T01:27:37.849Z,56.56
2022-09-16T01:28:37.866Z,52.00
2022-09-16T01:29:37.832Z,52.26
2022-09-16T01:30:37.827Z,55.36
2022-09-16T01:31:37.892Z,58.15
2022-09-16T01:32:37.814Z,50.52
2022-09-16T01:33:37.829Z,36.74
2022-09-16T01:34:37.798Z,53.24
2022-09-16T01:35:37.790Z,47.80
2022-09-16T01:36:37.780Z,53.74
2022-09-16T01:37:37.773Z,46.72
2022-09-16T01:38:37.799Z,50.85
2022-09-16T01:39:37.757Z,50.76
2022-09-16T01:40:37.747Z,49.58
2022-09-16T01:41:37.738Z,54.49
2022-09-16T01:42:37.733Z,50.00
2022-09-16T01:43:37.757Z,46.35
2022-09-16T01:44:37.719Z,44.72
2022-09-16T01:45:37.713Z,35.24
2022-09-16T01:46:37.762Z,51.74
2022-09-16T01:47:37.697Z,51.45
2022-09-16T01:48:37.685Z,60.86
2022-09-16T01:49:37.704Z,49.29
2022-09-16T01:50:37.673Z,56.61
2022-09-16T01:51:37.665Z,53.20
2022-09-16T01:52:37.658Z,59.46
2022-09-16T01:53:37.675Z,57.26
2022-09-16T01:54:37.650Z,51.97
2022-09-16T01:55:37.636Z,54.33
2022-09-16T01:56:37.629Z,53.53
2022-09-16T01:57:37.606Z,50.35
2022-09-16T01:58:38.631Z,38.19
2022-09-16T01:59:37.601Z,38.36
2022-09-16T02:00:37.592Z,53.71
2022-09-16T02:01:37.651Z,59.64
2022-09-16T02:02:37.779Z,48.88
2022-09-16T02:03:37.599Z,36.80
2022-09-16T02:04:37.567Z,39.90
2022-09-16T02:05:37.561Z,53.89
2022-09-16T02:06:37.555Z,41.42
2022-09-16T02:07:37.542Z,37.29
2022-09-16T02:08:37.550Z,51.16
2022-09-16T02:09:38.526Z,43.16
2022-09-16T02:10:37.525Z,50.56
2022-09-16T02:11:37.508Z,58.01
2022-09-16T02:12:37.500Z,37.88
2022-09-16T02:13:37.525Z,40.85
2022-09-16T02:14:37.484Z,37.82
2022-09-16T02:15:37.529Z,53.40
2022-09-16T02:16:37.468Z,61.07
2022-09-16T02:17:37.463Z,44.38
2022-09-16T02:18:37.479Z,52.30
2022-09-16T02:19:37.441Z,34.86
2022-09-16T02:20:37.432Z,39.29
2022-09-16T02:21:37.424Z,59.06
2022-09-16T02:22:37.413Z,49.69
2022-09-16T02:23:37.416Z,53.76
2022-09-16T02:24:37.429Z,44.75
2022-09-16T02:25:37.397Z,54.50
2022-09-16T02:26:37.387Z,54.66
2022-09-16T02:27:37.380Z,50.40
2022-09-16T02:28:37.374Z,48.27
2022-09-16T02:29:37.388Z,50.77
2022-09-16T02:30:37.355Z,50.83
2022-09-16T02:31:37.418Z,54.38
2022-09-16T02:32:37.341Z,53.63
2022-09-16T02:33:37.329Z,46.84
2022-09-16T02:34:37.355Z,57.08
2022-09-16T02:35:37.319Z,52.92
2022-09-16T02:36:37.306Z,52.68
2022-09-16T02:37:37.299Z,51.77
2022-09-16T02:38:37.290Z,48.96
2022-09-16T02:39:37.310Z,50.38
2022-09-16T02:40:37.275Z,43.50
2022-09-16T02:41:37.270Z,56.46
2022-09-16T02:42:37.259Z,41.96
2022-09-16T02:43:37.255Z,54.16
2022-09-16T02:44:37.267Z,55.76
2022-09-16T02:45:37.229Z,55.55
2022-09-16T02:46:37.296Z,58.17
2022-09-16T02:47:37.219Z,58.09
2022-09-16T02:48:37.214Z,56.24
2022-09-16T02:49:37.225Z,50.54
2022-09-16T02:50:37.191Z,55.73
2022-09-16T02:51:37.185Z,45.92
2022-09-16T02:52:37.176Z,50.77
2022-09-16T02:53:37.168Z,49.60
2022-09-16T02:54:37.184Z,58.06
2022-09-16T02:55:37.157Z,47.83
2022-09-16T02:56:37.143Z,58.37
2022-09-16T02:57:37.139Z,57.64
2022-09-16T02:58:37.140Z,57.71
2022-09-16T02:59:37.158Z,51.22
2022-09-16T03:00:37.119Z,52.99
2022-09-16T03:01:37.131Z,61.05
2022-09-16T03:02:37.131Z,57.74
2022-09-16T03:03:37.090Z,52.94
2022-09-16T03:04:37.105Z,57.52
2022-09-16T03:05:37.073Z,53.35
2022-09-16T03:06:37.065Z,53.35
2022-09-16T03:07:37.064Z,59.43
2022-09-16T03:08:37.057Z,61.88
2022-09-16T03:09:37.068Z,56.62
2022-09-16T03:10:37.041Z,58.73
2022-09-16T03:11:37.036Z,58.47
2022-09-16T03:12:37.025Z,54.06
2022-09-16T03:13:37.016Z,53.16
2022-09-16T03:14:37.053Z,60.45
2022-09-16T03:15:37.060Z,58.80
2022-09-16T03:16:36.987Z,63.68
2022-09-16T03:17:36.984Z,60.23
2022-09-16T03:18:36.973Z,55.60
2022-09-16T03:19:36.993Z,63.00
2022-09-16T03:20:36.960Z,61.09
2022-09-16T03:21:37.000Z,61.22
2022-09-16T03:22:36.941Z,58.92
2022-09-16T03:23:36.931Z,58.43
2022-09-16T03:24:36.954Z,55.85
2022-09-16T03:25:36.917Z,50.41
2022-09-16T03:26:36.906Z,63.92
2022-09-16T03:27:36.900Z,56.39
2022-09-16T03:28:36.894Z,57.21
2022-09-16T03:29:36.907Z,61.57
2022-09-16T03:30:36.884Z,62.38
2022-09-16T03:31:36.911Z,59.67
2022-09-16T03:32:36.866Z,61.96
2022-09-16T03:33:36.856Z,62.98
2022-09-16T03:34:36.871Z,65.18
2022-09-16T03:35:36.839Z,60.80
2022-09-16T03:36:36.828Z,60.06
2022-09-16T03:37:36.819Z,59.36
2022-09-16T03:38:36.810Z,50.29
2022-09-16T03:39:36.822Z,58.74
2022-09-16T03:40:36.802Z,58.17
2022-09-16T03:41:36.791Z,56.35
2022-09-16T03:42:36.782Z,59.96
2022-09-16T03:43:36.774Z,64.52
2022-09-16T03:44:36.768Z,62.81
2022-09-16T03:45:36.782Z,57.53
2022-09-16T03:46:36.804Z,57.71
2022-09-16T03:47:36.744Z,59.27
2022-09-16T03:48:36.735Z,55.65
2022-09-16T03:49:36.739Z,59.37
2022-09-16T03:50:36.746Z,55.24
2022-09-16T03:51:36.714Z,63.78
2022-09-16T03:52:36.706Z,59.31
2022-09-16T03:53:36.701Z,57.65
2022-09-16T03:54:36.699Z,55.03
2022-09-16T03:55:36.705Z,58.26
2022-09-16T03:56:36.670Z,62.19
2022-09-16T03:57:36.667Z,59.70
2022-09-16T03:58:36.662Z,57.38
2022-09-16T03:59:36.650Z,61.24
2022-09-16T04:00:36.668Z,55.50
2022-09-16T04:01:36.676Z,59.42
2022-09-16T04:02:36.678Z,57.16
2022-09-16T04:03:36.620Z,59.84
2022-09-16T04:04:36.616Z,63.10
2022-09-16T04:05:36.627Z,58.42
2022-09-16T04:06:36.582Z,61.78
2022-09-16T04:07:37.590Z,60.57
2022-09-16T04:08:36.582Z,59.83
2022-09-16T04:09:36.569Z,57.17
2022-09-16T04:10:36.590Z,60.74
2022-09-16T04:11:36.553Z,61.96
2022-09-16T04:12:36.555Z,61.49
2022-09-16T04:13:36.536Z,62.90
2022-09-16T04:14:36.546Z,55.78
2022-09-16T04:15:36.597Z,64.55
2022-09-16T04:16:36.516Z,60.90
2022-09-16T04:17:36.526Z,60.14
2022-09-16T04:18:36.502Z,49.71
2022-09-16T04:19:36.490Z,61.40
2022-09-16T04:20:36.515Z,62.49
2022-09-16T04:21:36.483Z,61.89
2022-09-16T04:22:36.472Z,61.16
2022-09-16T04:23:36.469Z,62.06
2022-09-16T04:24:36.456Z,64.40
2022-09-16T04:25:36.475Z,62.41
2022-09-16T04:26:36.440Z,59.22
2022-09-16T04:27:36.431Z,64.00
2022-09-16T04:28:36.430Z,62.41
2022-09-16T04:29:36.421Z,58.25
2022-09-16T04:30:36.491Z,60.22
2022-09-16T04:31:36.405Z,60.43
2022-09-16T04:32:36.392Z,62.92
2022-09-16T04:33:36.389Z,62.24
2022-09-16T04:34:36.379Z,60.21
2022-09-16T04:35:36.415Z,58.17
2022-09-16T04:36:36.371Z,63.38
2022-09-16T04:37:36.360Z,64.65
2022-09-16T04:38:36.349Z,58.60
2022-09-16T04:39:36.339Z,59.52
2022-09-16T04:40:36.370Z,61.74
2022-09-16T04:41:36.338Z,61.61
2022-09-16T04:42:36.316Z,58.07
2022-09-16T04:43:36.310Z,63.77
2022-09-16T04:44:36.303Z,63.18
2022-09-16T04:45:36.319Z,63.27
2022-09-16T04:46:36.339Z,58.52
2022-09-16T04:47:36.281Z,62.62
2022-09-16T04:48:36.284Z,64.76
2022-09-16T04:49:36.267Z,60.75
2022-09-16T04:50:36.295Z,61.51
2022-09-16T04:51:36.248Z,58.86
2022-09-16T04:52:36.246Z,60.36
2022-09-16T04:53:36.241Z,61.07
2022-09-16T04:54:36.222Z,62.94
2022-09-16T04:55:36.244Z,64.64
2022-09-16T04:56:36.219Z,61.65
2022-09-16T04:57:36.205Z,63.68
2022-09-16T04:58:36.205Z,64.03
2022-09-16T04:59:36.184Z,63.44
2022-09-16T05:00:36.178Z,62.10
2022-09-16T05:01:36.236Z,61.51
2022-09-16T05:02:36.169Z,61.50
2022-09-16T05:03:36.190Z,66.07
2022-09-16T05:04:36.144Z,66.28
2022-09-16T05:05:36.137Z,64.82
2022-09-16T05:06:36.156Z,64.88
2022-09-16T05:07:36.121Z,64.23
2022-09-16T05:08:36.106Z,59.15
2022-09-16T05:09:37.109Z,63.48
2022-09-16T05:10:36.106Z,62.22
2022-09-16T05:11:36.115Z,62.99
2022-09-16T05:12:36.156Z,65.74
2022-09-16T05:13:36.073Z,62.88
2022-09-16T05:14:36.070Z,64.19
2022-09-16T05:15:36.094Z,64.12
2022-09-16T05:16:36.074Z,65.25
2022-09-16T05:17:51.513Z,62.52
2022-09-16T05:18:38.031Z,59.36
2022-09-16T05:19:36.021Z,52.32
2022-09-16T05:20:36.018Z,63.18
2022-09-16T05:21:36.033Z,64.52
2022-09-16T05:22:35.997Z,63.56
2022-09-16T05:23:36.000Z,64.56
2022-09-16T05:24:35.987Z,65.06
2022-09-16T05:25:35.977Z,62.64
2022-09-16T05:26:35.994Z,61.66
2022-09-16T05:27:35.963Z,64.93
2022-09-16T05:28:36.029Z,65.73
2022-09-16T05:29:35.951Z,61.73
2022-09-16T05:30:35.965Z,63.96
2022-09-16T05:31:35.957Z,63.00
2022-09-16T05:32:35.923Z,64.69
2022-09-16T05:33:35.927Z,58.00
2022-09-16T05:34:35.911Z,55.65
2022-09-16T05:35:35.902Z,63.03
2022-09-16T05:36:35.919Z,62.44
2022-09-16T05:37:35.885Z,61.45
2022-09-16T05:38:35.887Z,64.18
2022-09-16T05:39:35.871Z,58.08
2022-09-16T05:40:35.868Z,59.97
2022-09-16T05:41:35.876Z,63.64
2022-09-16T05:42:35.843Z,60.04
2022-09-16T05:43:35.840Z,63.36
2022-09-16T05:44:35.978Z,59.44
2022-09-16T05:45:35.823Z,62.49
2022-09-16T05:46:35.851Z,61.52
2022-09-16T05:47:35.812Z,64.45
2022-09-16T05:48:35.804Z,62.57
2022-09-16T05:49:35.793Z,59.32
2022-09-16T05:50:35.779Z,64.02
2022-09-16T05:51:35.805Z,63.76
2022-09-16T05:52:35.846Z,63.77
2022-09-16T05:53:35.766Z,61.89
2022-09-16T05:54:35.756Z,57.99
2022-09-16T05:55:35.743Z,62.59
2022-09-16T05:56:35.762Z,64.52
2022-09-16T05:57:35.726Z,60.72
2022-09-16T05:58:35.719Z,58.76
2022-09-16T05:59:35.709Z,60.90
2022-09-16T06:00:35.786Z,62.77
2022-09-16T06:01:35.796Z,58.17
2022-09-16T06:02:35.797Z,57.79
2022-09-16T06:03:36.678Z,61.86
2022-09-16T06:04:35.666Z,60.47
2022-09-16T06:05:35.666Z,63.71
2022-09-16T06:06:35.683Z,58.81
2022-09-16T06:07:35.639Z,58.91
2022-09-16T06:08:35.647Z,59.43
2022-09-16T06:09:35.619Z,62.09
2022-09-16T06:10:36.622Z,62.76
2022-09-16T06:11:35.638Z,62.07
2022-09-16T06:12:35.606Z,56.53
2022-09-16T06:13:35.596Z,61.58
2022-09-16T06:14:35.596Z,57.45
2022-09-16T06:15:35.615Z,57.37
2022-09-16T06:16:35.660Z,59.29
2022-09-16T06:17:35.597Z,61.81
2022-09-16T06:18:35.557Z,59.09
2022-09-16T06:19:35.556Z,47.97
2022-09-16T06:20:35.543Z,60.40
2022-09-16T06:21:35.566Z,53.22
2022-09-16T06:22:35.536Z,59.48
2022-09-16T06:23:35.522Z,54.03
2022-09-16T06:24:35.520Z,57.64
2022-09-16T06:25:35.511Z,57.25
2022-09-16T06:26:35.532Z,56.70
2022-09-16T06:27:35.491Z,59.75
2022-09-16T06:28:35.491Z,59.87
2022-09-16T06:29:35.482Z,59.88
2022-09-16T06:30:35.511Z,58.63
2022-09-16T06:31:35.482Z,55.54
2022-09-16T06:32:35.540Z,56.66
2022-09-16T06:33:35.448Z,60.34
2022-09-16T06:34:35.445Z,60.77
2022-09-16T06:35:35.434Z,57.01
2022-09-16T06:36:35.458Z,58.62
2022-09-16T06:37:35.420Z,55.16
2022-09-16T06:38:35.409Z,59.62
2022-09-16T06:39:35.403Z,58.51
2022-09-16T06:40:35.449Z,59.18
2022-09-16T06:41:35.424Z,55.86
2022-09-16T06:42:35.384Z,59.39
2022-09-16T06:43:35.372Z,56.18
2022-09-16T06:44:35.402Z,57.33
2022-09-16T06:45:35.355Z,58.05
2022-09-16T06:46:35.371Z,62.52
2022-09-16T06:47:35.346Z,58.92
2022-09-16T06:48:35.410Z,53.56
2022-09-16T06:49:35.331Z,57.85
2022-09-16T06:50:35.321Z,54.98
2022-09-16T06:51:36.195Z,55.91
2022-09-16T06:52:35.305Z,51.74
2022-09-16T06:53:35.298Z,52.04
2022-09-16T06:54:35.289Z,62.70
2022-09-16T06:55:35.284Z,57.49
2022-09-16T06:56:35.302Z,55.65
2022-09-16T06:57:35.263Z,50.75
2022-09-16T06:58:35.256Z,61.03
2022-09-16T06:59:35.252Z,57.52
2022-09-16T07:00:35.238Z,54.09
2022-09-16T07:01:35.324Z,59.13
2022-09-16T07:02:35.243Z,52.90
2022-09-16T07:03:35.213Z,54.97
2022-09-16T07:04:35.277Z,50.87
2022-09-16T07:05:36.203Z,56.58
2022-09-16T07:07:08.611Z,60.50
2022-09-16T07:07:37.185Z,55.07
2022-09-16T07:08:35.178Z,57.18
2022-09-16T07:09:35.171Z,54.60
2022-09-16T07:10:35.161Z,57.11
2022-09-16T07:11:35.182Z,57.41
2022-09-16T07:12:35.153Z,55.64
2022-09-16T07:13:35.133Z,58.08
2022-09-16T07:14:35.118Z,56.21
2022-09-16T07:15:50.913Z,58.05
2022-09-16T07:16:37.194Z,55.23
2022-09-16T07:17:35.111Z,55.69
2022-09-16T07:18:35.104Z,58.11
2022-09-16T07:19:35.089Z,54.02
2022-09-16T07:20:35.160Z,55.82
2022-09-16T07:21:35.097Z,55.53
2022-09-16T07:22:35.072Z,56.73
2022-09-16T07:23:35.068Z,53.74
2022-09-16T07:24:35.058Z,55.45
2022-09-16T07:25:35.966Z,54.24
2022-09-16T07:26:36.063Z,57.56
2022-09-16T07:27:35.027Z,53.97
2022-09-16T07:28:35.045Z,50.68
2022-09-16T07:29:35.010Z,48.56
2022-09-16T07:30:35.049Z,56.12
2022-09-16T07:31:35.028Z,55.62
2022-09-16T07:32:34.986Z,55.11
2022-09-16T07:33:34.982Z,55.75
2022-09-16T07:34:34.972Z,54.31
2022-09-16T07:35:34.967Z,54.95
2022-09-16T07:36:35.104Z,56.44
2022-09-16T07:37:36.489Z,55.44
2022-09-16T07:38:34.936Z,59.27
2022-09-16T07:39:35.935Z,56.54
2022-09-16T07:40:34.979Z,48.52
2022-09-16T07:41:34.924Z,54.64
2022-09-16T07:42:34.938Z,57.27
2022-09-16T07:43:34.918Z,55.72
2022-09-16T07:44:34.899Z,56.09
2022-09-16T07:45:34.973Z,54.07
2022-09-16T07:46:34.885Z,58.06
2022-09-16T07:47:34.944Z,57.89
2022-09-16T07:48:35.485Z,50.33
2022-09-16T07:49:35.881Z,55.56
2022-09-16T07:50:34.849Z,56.27
2022-09-16T07:51:34.848Z,51.44
2022-09-16T07:52:35.005Z,57.41
2022-09-16T07:53:34.838Z,56.03
2022-09-16T07:54:34.826Z,50.31
2022-09-16T07:55:34.813Z,58.44
2022-09-16T07:56:34.803Z,54.59
2022-09-16T07:57:34.824Z,53.92
2022-09-16T07:58:34.791Z,57.65
2022-09-16T07:59:34.786Z,52.58
2022-09-16T08:00:35.783Z,53.26
2022-09-16T08:01:35.015Z,53.60
2022-09-16T08:02:34.831Z,54.83
2022-09-16T08:03:34.760Z,58.92
2022-09-16T08:04:34.749Z,54.69
2022-09-16T08:05:34.736Z,51.20
2022-09-16T08:06:34.737Z,53.07
2022-09-16T08:07:34.758Z,55.14
2022-09-16T08:08:34.794Z,50.30
2022-09-16T08:09:38.519Z,51.03
2022-09-16T08:10:36.699Z,56.17
2022-09-16T08:11:34.693Z,57.14
2022-09-16T08:12:34.713Z,55.07
2022-09-16T08:13:34.682Z,54.37
2022-09-16T08:14:34.675Z,52.92
2022-09-16T08:15:34.683Z,53.04
2022-09-16T08:16:34.705Z,51.95
2022-09-16T08:17:34.684Z,54.91
2022-09-16T08:18:34.637Z,55.89
2022-09-16T08:19:35.641Z,52.99
2022-09-16T08:20:34.668Z,51.79
2022-09-16T08:21:34.617Z,53.36
2022-09-16T08:22:34.654Z,56.29
2022-09-16T08:23:34.602Z,52.66
2022-09-16T08:24:34.676Z,52.81
2022-09-16T08:25:34.594Z,59.42
2022-09-16T08:26:34.578Z,56.92
2022-09-16T08:27:34.593Z,61.38
2022-09-16T08:28:45.156Z,56.71
2022-09-16T08:29:36.558Z,52.54
2022-09-16T08:30:34.547Z,56.19
2022-09-16T08:31:34.609Z,55.89
2022-09-16T08:32:34.561Z,57.64
2022-09-16T08:33:34.523Z,57.67
2022-09-16T08:34:34.516Z,53.86
2022-09-16T08:35:34.519Z,58.63
2022-09-16T08:36:34.511Z,53.50
2022-09-16T08:37:34.521Z,55.46
2022-09-16T08:38:34.491Z,57.38
2022-09-16T08:39:34.489Z,60.15
2022-09-16T08:40:34.559Z,58.84
2022-09-16T08:41:34.469Z,56.91
2022-09-16T08:42:34.498Z,55.56
2022-09-16T08:43:34.452Z,57.44
2022-09-16T08:44:34.471Z,57.47
2022-09-16T08:45:34.505Z,57.92
2022-09-16T08:46:34.433Z,52.69
2022-09-16T08:47:34.466Z,56.07
2022-09-16T08:48:34.409Z,58.80
2022-09-16T08:49:35.419Z,56.54
2022-09-16T08:50:34.402Z,49.93
2022-09-16T08:51:34.397Z,49.58
2022-09-16T08:52:34.408Z,57.87
2022-09-16T08:53:34.387Z,54.45
2022-09-16T08:54:34.413Z,55.25
2022-09-16T08:55:34.368Z,54.95
2022-09-16T08:56:34.451Z,54.13
2022-09-16T08:57:34.378Z,54.78
2022-09-16T08:58:34.345Z,57.36
2022-09-16T08:59:34.337Z,51.75
2022-09-16T09:00:34.324Z,57.18
2022-09-16T09:01:34.585Z,59.11
2022-09-16T09:02:34.711Z,55.51
2022-09-16T09:03:34.303Z,57.17
2022-09-16T09:04:34.303Z,56.00
2022-09-16T09:05:34.287Z,55.05
2022-09-16T09:06:34.280Z,57.36
2022-09-16T09:07:34.299Z,58.96
2022-09-16T09:08:34.265Z,55.08
2022-09-16T09:09:34.264Z,54.81
2022-09-16T09:10:34.265Z,55.94
2022-09-16T09:11:34.815Z,55.60
2022-09-16T09:12:35.418Z,57.15
2022-09-16T09:13:34.229Z,54.75
2022-09-16T09:14:34.224Z,58.38
2022-09-16T09:15:34.214Z,55.80
2022-09-16T09:16:34.253Z,57.14
2022-09-16T09:17:37.147Z,53.69
2022-09-16T09:18:36.211Z,57.22
2022-09-16T09:19:34.185Z,56.25
2022-09-16T09:20:34.186Z,54.56
2022-09-16T09:21:34.196Z,55.23
2022-09-16T09:22:34.166Z,54.37
2022-09-16T09:23:34.181Z,58.74
2022-09-16T09:24:34.166Z,57.66
2022-09-16T09:25:34.138Z,57.01
2022-09-16T09:26:34.136Z,60.69
2022-09-16T09:27:34.128Z,53.99
2022-09-16T09:28:34.234Z,55.80
2022-09-16T09:29:34.110Z,57.84
2022-09-16T09:30:34.105Z,58.99
2022-09-16T09:31:34.199Z,58.99
2022-09-16T09:32:46.326Z,57.32
2022-09-16T09:33:46.030Z,57.24
2022-09-16T09:34:39.607Z,55.00
2022-09-16T09:35:35.069Z,55.21
2022-09-16T09:36:34.062Z,53.23
2022-09-16T09:37:34.050Z,49.64
2022-09-16T09:38:34.084Z,51.66
2022-09-16T09:39:34.035Z,53.35
2022-09-16T09:40:34.104Z,54.69
2022-09-16T09:41:34.029Z,53.30
2022-09-16T09:42:34.015Z,56.02
2022-09-16T09:43:34.050Z,57.14
2022-09-16T09:44:34.082Z,54.69
2022-09-16T09:45:34.997Z,54.45
2022-09-16T09:46:34.039Z,55.66
2022-09-16T09:47:33.974Z,54.50
2022-09-16T09:48:33.993Z,53.08
2022-09-16T09:49:33.984Z,53.90
2022-09-16T09:50:33.953Z,55.52
2022-09-16T09:51:33.940Z,55.82
2022-09-16T09:52:33.942Z,58.66
2022-09-16T09:53:33.954Z,56.54
2022-09-16T09:54:33.953Z,55.59
2022-09-16T09:55:33.971Z,56.22
2022-09-16T09:56:33.904Z,54.73
2022-09-16T09:57:33.895Z,57.45
2022-09-16T09:58:33.923Z,55.99
2022-09-16T09:59:33.883Z,59.31
2022-09-16T10:00:34.033Z,57.16
2022-09-16T10:01:33.871Z,55.85
2022-09-16T10:02:33.861Z,52.26
2022-09-16T10:03:33.873Z,55.89
2022-09-16T10:04:33.844Z,53.48
2022-09-16T10:05:33.839Z,56.97
2022-09-16T10:06:33.829Z,54.89
2022-09-16T10:07:33.825Z,54.59
2022-09-16T10:08:33.839Z,57.63
2022-09-16T10:09:33.814Z,57.01
2022-09-16T10:10:33.819Z,56.52
2022-09-16T10:11:33.792Z,58.81
2022-09-16T10:12:33.786Z,50.32
2022-09-16T10:13:33.800Z,52.13
2022-09-16T10:14:33.774Z,54.84
2022-09-16T10:15:33.761Z,58.62
2022-09-16T10:16:33.935Z,56.22
2022-09-16T10:17:33.744Z,56.09
2022-09-16T10:18:33.763Z,53.84
2022-09-16T10:19:33.730Z,57.67
2022-09-16T10:20:33.723Z,56.26
2022-09-16T10:21:33.732Z,59.03
2022-09-16T10:22:33.708Z,57.41
2022-09-16T10:23:33.725Z,55.59
2022-09-16T10:24:33.688Z,54.49
2022-09-16T10:25:33.688Z,55.16
2022-09-16T10:26:33.672Z,52.59
2022-09-16T10:27:33.662Z,55.47
2022-09-16T10:28:33.681Z,54.26
2022-09-16T10:29:33.650Z,53.75
2022-09-16T10:30:33.644Z,56.25
2022-09-16T10:31:34.628Z,56.41
2022-09-16T10:32:34.713Z,54.85
2022-09-16T10:33:33.643Z,55.05
2022-09-16T10:34:33.613Z,50.72
2022-09-16T10:35:33.603Z,52.32
2022-09-16T10:36:33.597Z,54.03
2022-09-16T10:37:33.587Z,56.85
2022-09-16T10:38:33.602Z,50.92
2022-09-16T10:39:33.574Z,53.87
2022-09-16T10:40:33.625Z,50.94
2022-09-16T10:41:33.554Z,54.62
2022-09-16T10:42:33.547Z,54.48
2022-09-16T10:43:33.564Z,53.13
2022-09-16T10:44:33.534Z,52.38
2022-09-16T10:45:33.526Z,55.60
2022-09-16T10:46:33.552Z,56.93
2022-09-16T10:47:34.543Z,55.80
2022-09-16T10:48:33.621Z,53.90
2022-09-16T10:49:33.491Z,55.61
2022-09-16T10:50:33.508Z,56.28
2022-09-16T10:51:33.473Z,56.58
2022-09-16T10:52:33.467Z,54.60
2022-09-16T10:53:36.340Z,57.63
2022-09-16T10:54:34.449Z,54.64
2022-09-16T10:55:33.438Z,55.31
2022-09-16T10:56:33.439Z,58.04
2022-09-16T10:57:33.431Z,55.84
2022-09-16T10:58:33.446Z,60.22
2022-09-16T10:59:33.449Z,59.43
2022-09-16T11:00:33.497Z,58.17
2022-09-16T11:01:34.130Z,52.71
2022-09-16T11:02:33.389Z,55.39
2022-09-16T11:03:33.424Z,57.12
2022-09-16T11:04:33.462Z,57.05
2022-09-16T11:05:33.368Z,56.45
2022-09-16T11:06:33.357Z,54.11
2022-09-16T11:07:33.349Z,54.93
2022-09-16T11:08:33.342Z,56.11
2022-09-16T11:09:33.357Z,55.30
2022-09-16T11:10:33.330Z,56.08
2022-09-16T11:11:33.325Z,59.83
2022-09-16T11:12:33.316Z,55.86
2022-09-16T11:13:33.302Z,56.24
2022-09-16T11:14:33.320Z,52.86
2022-09-16T11:15:33.293Z,54.25
2022-09-16T11:16:33.324Z,57.76
2022-09-16T11:17:33.269Z,57.51
2022-09-16T11:18:33.270Z,54.08
2022-09-16T11:19:33.292Z,51.78
2022-09-16T11:20:33.383Z,58.27
2022-09-16T11:21:33.250Z,57.81
2022-09-16T11:22:33.232Z,57.02
2022-09-16T11:23:33.224Z,57.56
2022-09-16T11:24:33.243Z,57.80
2022-09-16T11:25:33.207Z,57.52
2022-09-16T11:26:33.202Z,57.54
2022-09-16T11:27:33.199Z,55.93
2022-09-16T11:28:33.188Z,54.01
2022-09-16T11:29:33.202Z,54.85
2022-09-16T11:30:33.192Z,54.49
2022-09-16T11:31:33.274Z,54.50
2022-09-16T11:32:33.205Z,53.02
2022-09-16T11:33:33.146Z,56.24
2022-09-16T11:34:33.164Z,56.43
2022-09-16T11:35:33.128Z,57.55
2022-09-16T11:36:33.220Z,58.05
2022-09-16T11:37:33.184Z,56.64
2022-09-16T11:38:33.107Z,56.03
2022-09-16T11:39:33.164Z,56.03
2022-09-16T11:40:33.116Z,59.42
2022-09-16T11:41:34.083Z,55.93
2022-09-16T11:42:33.074Z,57.66
2022-09-16T11:43:33.073Z,54.67
2022-09-16T11:44:33.099Z,57.59
2022-09-16T11:45:33.054Z,56.18
2022-09-16T11:46:33.060Z,59.67
2022-09-16T11:47:35.985Z,57.70
2022-09-16T11:48:34.020Z,55.51
2022-09-16T11:49:33.048Z,56.48
2022-09-16T11:50:33.011Z,59.80
2022-09-16T11:51:33.006Z,56.23
2022-09-16T11:52:33.097Z,55.91
2022-09-16T11:53:36.522Z,57.80
2022-09-16T11:54:35.004Z,58.39
2022-09-16T11:55:32.975Z,54.71
2022-09-16T11:56:32.963Z,50.35
2022-09-16T11:57:33.957Z,56.43
2022-09-16T11:58:32.955Z,55.91
2022-09-16T11:59:32.969Z,54.87
2022-09-16T12:00:32.950Z,58.29
2022-09-16T12:01:33.018Z,56.75
2022-09-16T12:02:33.025Z,52.87
2022-09-16T12:03:32.913Z,55.05
2022-09-16T12:04:35.032Z,53.37
2022-09-16T12:05:32.895Z,55.86
2022-09-16T12:06:32.886Z,54.78
2022-09-16T12:07:32.881Z,58.39
2022-09-16T12:08:32.961Z,56.63
2022-09-16T12:09:32.865Z,55.59
2022-09-16T12:10:32.885Z,56.57
2022-09-16T12:11:32.851Z,51.87
2022-09-16T12:12:32.843Z,55.20
2022-09-16T12:13:32.840Z,56.07
2022-09-16T12:14:32.833Z,54.52
2022-09-16T12:15:32.852Z,57.32
2022-09-16T12:16:32.818Z,57.31
2022-09-16T12:17:32.818Z,54.36
2022-09-16T12:18:32.796Z,55.50
2022-09-16T12:19:32.791Z,54.69
2022-09-16T12:20:32.811Z,54.55
2022-09-16T12:21:32.778Z,57.71
2022-09-16T12:22:32.769Z,55.66
2022-09-16T12:23:32.764Z,55.25
2022-09-16T12:24:32.846Z,54.92
2022-09-16T12:25:32.772Z,56.55
2022-09-16T12:26:32.739Z,56.42
2022-09-16T12:27:32.738Z,54.36
2022-09-16T12:28:32.718Z,57.17
2022-09-16T12:29:32.717Z,55.85
2022-09-16T12:30:32.722Z,55.21
2022-09-16T12:31:33.718Z,54.36
2022-09-16T12:32:32.688Z,55.13
2022-09-16T12:33:32.687Z,50.76
2022-09-16T12:34:32.678Z,54.34
2022-09-16T12:35:32.720Z,53.81
2022-09-16T12:36:32.658Z,52.52
2022-09-16T12:37:32.650Z,56.22
2022-09-16T12:38:32.642Z,53.42
2022-09-16T12:39:32.635Z,55.20
2022-09-16T12:40:32.817Z,57.55
2022-09-16T12:41:32.618Z,55.56
2022-09-16T12:42:32.615Z,54.58
2022-09-16T12:43:32.609Z,52.80
2022-09-16T12:44:34.788Z,51.32
2022-09-16T12:45:33.613Z,54.90
2022-09-16T12:46:32.628Z,57.38
2022-09-16T12:47:32.573Z,59.34
2022-09-16T12:48:32.561Z,56.31
2022-09-16T12:49:32.556Z,55.90
2022-09-16T12:50:32.571Z,56.34
2022-09-16T12:51:32.547Z,55.66
2022-09-16T12:52:32.534Z,58.34